アデレード の空港の天気 - METARとTAF

アデレード空港 ( YPAD / ADL ) - オーストラリア 南オーストラリア州アデレード
飛行場実況気象(Metar)
観測時間09/25 13:30 ACST (09/25 04:00 UTC)
風向・風速西 6m/s
視程10km以上
天気現象
なし
気温17℃
湿度45%
気圧1025hPa
METARYPAD 250400Z 26011KT CAVOK 17/05 Q1025 NOSIG
過去の天気等 Google飛行場航空写真 Wunderground天気予報

過去48時間のMETAR

飛行場予報(TAF)
発表時間: 9/25 08:49 ACST (9/24 23:19 UTC)
予報対象時間: 25日9時 ACST ~ 26日15時 ACST
風向・風速西南西 5m/s
視程10km以上
なし
25日17時 ACST から
風向・風速東南東 5m/s
視程10km以上
なし
26日3時 ACST から
風向・風速北東 5m/s
視程10km以上
なし
26日10時 ACST から
風向・風速北北西 5m/s
視程10km以上
なし
TAF YPAD 242319Z 2500/2606 24010KT CAVOK
FM250800 12010KT CAVOK
FM251800 05010KT CAVOK
FM260100 34010KT CAVOK